sensor_id;sensor_type;location;lat;lon;timestamp;P1;durP1;ratioP1;P2;durP2;ratioP2
60030;SDS011;45901;47.600;9.890;2022-09-27T00:01:30;3.50;;;1.73;;
60030;SDS011;45901;47.600;9.890;2022-09-27T00:03:58;3.10;;;1.40;;
60030;SDS011;45901;47.600;9.890;2022-09-27T00:06:26;2.50;;;1.57;;
60030;SDS011;45901;47.600;9.890;2022-09-27T00:08:56;3.80;;;1.73;;
60030;SDS011;45901;47.600;9.890;2022-09-27T00:11:25;4.57;;;1.80;;
60030;SDS011;45901;47.600;9.890;2022-09-27T00:13:53;2.93;;;1.90;;
60030;SDS011;45901;47.600;9.890;2022-09-27T00:16:23;3.97;;;2.30;;
60030;SDS011;45901;47.600;9.890;2022-09-27T00:18:56;5.47;;;2.00;;
60030;SDS011;45901;47.600;9.890;2022-09-27T00:21:24;4.07;;;2.00;;
60030;SDS011;45901;47.600;9.890;2022-09-27T00:23:52;3.93;;;2.20;;
60030;SDS011;45901;47.600;9.890;2022-09-27T00:26:19;3.47;;;1.80;;
60030;SDS011;45901;47.600;9.890;2022-09-27T00:28:46;4.30;;;1.90;;
60030;SDS011;45901;47.600;9.890;2022-09-27T00:31:18;4.10;;;1.93;;
60030;SDS011;45901;47.600;9.890;2022-09-27T00:33:47;5.93;;;1.77;;
60030;SDS011;45901;47.600;9.890;2022-09-27T00:36:17;3.60;;;2.10;;
60030;SDS011;45901;47.600;9.890;2022-09-27T00:38:45;4.23;;;2.07;;
60030;SDS011;45901;47.600;9.890;2022-09-27T00:41:13;3.93;;;2.10;;
60030;SDS011;45901;47.600;9.890;2022-09-27T00:43:44;5.63;;;2.30;;
60030;SDS011;45901;47.600;9.890;2022-09-27T00:46:16;4.07;;;2.40;;
60030;SDS011;45901;47.600;9.890;2022-09-27T00:48:52;3.67;;;2.10;;
60030;SDS011;45901;47.600;9.890;2022-09-27T00:51:31;3.63;;;2.00;;
60030;SDS011;45901;47.600;9.890;2022-09-27T00:54:03;2.40;;;1.90;;
60030;SDS011;45901;47.600;9.890;2022-09-27T00:56:33;4.80;;;2.60;;
60030;SDS011;45901;47.600;9.890;2022-09-27T00:59:02;4.20;;;2.20;;
60030;SDS011;45901;47.600;9.890;2022-09-27T01:01:36;4.60;;;2.00;;
60030;SDS011;45901;47.600;9.890;2022-09-27T01:04:05;4.70;;;2.07;;
60030;SDS011;45901;47.600;9.890;2022-09-27T01:06:36;4.30;;;2.33;;
60030;SDS011;45901;47.600;9.890;2022-09-27T01:09:03;4.53;;;1.97;;
60030;SDS011;45901;47.600;9.890;2022-09-27T01:11:37;2.20;;;1.60;;
60030;SDS011;45901;47.600;9.890;2022-09-27T01:14:14;2.40;;;1.80;;
60030;SDS011;45901;47.600;9.890;2022-09-27T01:16:59;2.67;;;1.80;;
60030;SDS011;45901;47.600;9.890;2022-09-27T01:19:45;2.23;;;1.60;;
60030;SDS011;45901;47.600;9.890;2022-09-27T01:22:42;3.47;;;1.93;;
60030;SDS011;45901;47.600;9.890;2022-09-27T01:25:39;2.07;;;1.63;;
60030;SDS011;45901;47.600;9.890;2022-09-27T01:28:26;2.77;;;1.77;;
60030;SDS011;45901;47.600;9.890;2022-09-27T01:31:14;1.80;;;1.57;;
60030;SDS011;45901;47.600;9.890;2022-09-27T01:33:51;3.77;;;1.80;;
60030;SDS011;45901;47.600;9.890;2022-09-27T01:36:30;3.00;;;1.97;;
60030;SDS011;45901;47.600;9.890;2022-09-27T01:39:09;3.50;;;1.80;;
60030;SDS011;45901;47.600;9.890;2022-09-27T01:41:52;7.50;;;1.80;;
60030;SDS011;45901;47.600;9.890;2022-09-27T01:44:29;3.47;;;1.87;;
60030;SDS011;45901;47.600;9.890;2022-09-27T01:47:02;2.60;;;2.10;;
60030;SDS011;45901;47.600;9.890;2022-09-27T01:49:35;5.93;;;2.17;;
60030;SDS011;45901;47.600;9.890;2022-09-27T01:52:11;4.03;;;2.20;;
60030;SDS011;45901;47.600;9.890;2022-09-27T01:54:44;2.50;;;1.70;;
60030;SDS011;45901;47.600;9.890;2022-09-27T01:57:18;3.00;;;2.20;;
60030;SDS011;45901;47.600;9.890;2022-09-27T01:59:51;4.80;;;1.90;;
60030;SDS011;45901;47.600;9.890;2022-09-27T02:02:26;2.33;;;1.80;;
60030;SDS011;45901;47.600;9.890;2022-09-27T02:04:57;3.43;;;2.23;;
60030;SDS011;45901;47.600;9.890;2022-09-27T02:07:31;2.10;;;1.57;;
60030;SDS011;45901;47.600;9.890;2022-09-27T02:10:04;3.27;;;1.90;;
60030;SDS011;45901;47.600;9.890;2022-09-27T02:12:38;3.87;;;2.07;;
60030;SDS011;45901;47.600;9.890;2022-09-27T02:15:15;2.53;;;1.93;;
60030;SDS011;45901;47.600;9.890;2022-09-27T02:17:46;2.43;;;1.80;;
60030;SDS011;45901;47.600;9.890;2022-09-27T02:20:22;4.63;;;1.83;;
60030;SDS011;45901;47.600;9.890;2022-09-27T02:22:58;3.37;;;2.00;;
60030;SDS011;45901;47.600;9.890;2022-09-27T02:25:37;4.37;;;2.37;;
60030;SDS011;45901;47.600;9.890;2022-09-27T02:28:12;3.13;;;2.10;;
60030;SDS011;45901;47.600;9.890;2022-09-27T02:30:48;4.13;;;2.10;;
60030;SDS011;45901;47.600;9.890;2022-09-27T02:33:17;4.27;;;2.50;;
60030;SDS011;45901;47.600;9.890;2022-09-27T02:35:49;2.83;;;1.70;;
60030;SDS011;45901;47.600;9.890;2022-09-27T02:38:16;2.80;;;1.80;;
60030;SDS011;45901;47.600;9.890;2022-09-27T02:40:45;2.77;;;1.87;;
60030;SDS011;45901;47.600;9.890;2022-09-27T02:43:13;4.03;;;2.03;;
60030;SDS011;45901;47.600;9.890;2022-09-27T02:45:45;3.60;;;2.13;;
60030;SDS011;45901;47.600;9.890;2022-09-27T02:48:30;5.33;;;1.73;;
60030;SDS011;45901;47.600;9.890;2022-09-27T02:51:10;3.27;;;2.17;;
60030;SDS011;45901;47.600;9.890;2022-09-27T02:53:51;4.13;;;2.07;;
60030;SDS011;45901;47.600;9.890;2022-09-27T02:56:33;2.80;;;1.90;;
60030;SDS011;45901;47.600;9.890;2022-09-27T02:59:10;2.30;;;1.57;;
60030;SDS011;45901;47.600;9.890;2022-09-27T03:01:54;3.07;;;2.00;;
60030;SDS011;45901;47.600;9.890;2022-09-27T03:04:38;2.73;;;1.90;;
60030;SDS011;45901;47.600;9.890;2022-09-27T03:07:12;3.60;;;1.80;;
60030;SDS011;45901;47.600;9.890;2022-09-27T03:09:41;2.53;;;1.63;;
60030;SDS011;45901;47.600;9.890;2022-09-27T03:12:12;2.40;;;1.80;;
60030;SDS011;45901;47.600;9.890;2022-09-27T03:14:39;2.77;;;1.80;;
60030;SDS011;45901;47.600;9.890;2022-09-27T03:17:07;3.03;;;1.50;;
60030;SDS011;45901;47.600;9.890;2022-09-27T03:19:34;2.90;;;1.60;;
60030;SDS011;45901;47.600;9.890;2022-09-27T03:22:02;3.10;;;1.70;;
60030;SDS011;45901;47.600;9.890;2022-09-27T03:24:29;4.60;;;1.33;;
60030;SDS011;45901;47.600;9.890;2022-09-27T03:26:56;2.37;;;1.10;;
60030;SDS011;45901;47.600;9.890;2022-09-27T03:29:23;1.07;;;0.90;;
60030;SDS011;45901;47.600;9.890;2022-09-27T03:31:51;2.67;;;1.10;;
60030;SDS011;45901;47.600;9.890;2022-09-27T03:34:18;1.73;;;1.20;;
60030;SDS011;45901;47.600;9.890;2022-09-27T03:36:46;2.23;;;1.20;;
60030;SDS011;45901;47.600;9.890;2022-09-27T03:39:14;1.57;;;1.00;;
60030;SDS011;45901;47.600;9.890;2022-09-27T03:41:42;1.60;;;0.90;;
60030;SDS011;45901;47.600;9.890;2022-09-27T03:44:09;1.57;;;0.80;;
60030;SDS011;45901;47.600;9.890;2022-09-27T03:46:36;2.37;;;0.87;;
60030;SDS011;45901;47.600;9.890;2022-09-27T03:49:03;1.23;;;0.77;;
60030;SDS011;45901;47.600;9.890;2022-09-27T03:51:30;1.73;;;0.80;;
60030;SDS011;45901;47.600;9.890;2022-09-27T03:53:57;1.50;;;0.80;;
60030;SDS011;45901;47.600;9.890;2022-09-27T03:56:26;1.30;;;0.90;;
60030;SDS011;45901;47.600;9.890;2022-09-27T03:58:53;1.23;;;0.50;;
60030;SDS011;45901;47.600;9.890;2022-09-27T04:01:20;1.30;;;1.00;;
60030;SDS011;45901;47.600;9.890;2022-09-27T04:03:47;2.13;;;0.63;;
60030;SDS011;45901;47.600;9.890;2022-09-27T04:06:14;1.40;;;0.90;;
60030;SDS011;45901;47.600;9.890;2022-09-27T04:08:42;1.73;;;0.83;;
60030;SDS011;45901;47.600;9.890;2022-09-27T04:11:09;0.80;;;0.60;;
60030;SDS011;45901;47.600;9.890;2022-09-27T04:13:38;1.00;;;0.77;;
60030;SDS011;45901;47.600;9.890;2022-09-27T04:16:05;0.93;;;0.60;;
60030;SDS011;45901;47.600;9.890;2022-09-27T04:18:32;0.70;;;0.50;;
60030;SDS011;45901;47.600;9.890;2022-09-27T04:21:00;3.00;;;1.07;;
60030;SDS011;45901;47.600;9.890;2022-09-27T04:23:27;2.13;;;1.00;;
60030;SDS011;45901;47.600;9.890;2022-09-27T04:25:55;1.57;;;0.80;;
60030;SDS011;45901;47.600;9.890;2022-09-27T04:28:22;2.30;;;0.67;;
60030;SDS011;45901;47.600;9.890;2022-09-27T04:30:51;0.60;;;0.50;;
60030;SDS011;45901;47.600;9.890;2022-09-27T04:33:18;1.20;;;0.60;;
60030;SDS011;45901;47.600;9.890;2022-09-27T04:35:45;1.07;;;0.50;;
60030;SDS011;45901;47.600;9.890;2022-09-27T04:38:30;2.00;;;0.40;;
60030;SDS011;45901;47.600;9.890;2022-09-27T04:40:57;1.60;;;0.70;;
60030;SDS011;45901;47.600;9.890;2022-09-27T04:43:25;1.20;;;0.50;;
60030;SDS011;45901;47.600;9.890;2022-09-27T04:45:54;0.67;;;0.53;;
60030;SDS011;45901;47.600;9.890;2022-09-27T04:48:21;1.10;;;0.50;;
60030;SDS011;45901;47.600;9.890;2022-09-27T04:50:54;2.97;;;0.80;;
60030;SDS011;45901;47.600;9.890;2022-09-27T04:53:23;1.83;;;0.70;;
60030;SDS011;45901;47.600;9.890;2022-09-27T04:55:51;1.20;;;0.50;;
60030;SDS011;45901;47.600;9.890;2022-09-27T04:58:19;1.03;;;0.50;;
60030;SDS011;45901;47.600;9.890;2022-09-27T05:00:47;1.50;;;0.50;;
60030;SDS011;45901;47.600;9.890;2022-09-27T05:03:17;2.70;;;0.70;;
60030;SDS011;45901;47.600;9.890;2022-09-27T05:05:45;2.57;;;0.70;;
60030;SDS011;45901;47.600;9.890;2022-09-27T05:08:12;1.87;;;0.50;;
60030;SDS011;45901;47.600;9.890;2022-09-27T05:10:39;2.80;;;0.40;;
60030;SDS011;45901;47.600;9.890;2022-09-27T05:13:07;1.70;;;0.67;;
60030;SDS011;45901;47.600;9.890;2022-09-27T05:15:34;1.27;;;0.67;;
60030;SDS011;45901;47.600;9.890;2022-09-27T05:18:01;3.70;;;0.80;;
60030;SDS011;45901;47.600;9.890;2022-09-27T05:20:29;3.87;;;0.70;;
60030;SDS011;45901;47.600;9.890;2022-09-27T05:22:57;1.83;;;0.60;;
60030;SDS011;45901;47.600;9.890;2022-09-27T05:25:24;1.40;;;0.50;;
60030;SDS011;45901;47.600;9.890;2022-09-27T05:27:51;2.67;;;0.50;;
60030;SDS011;45901;47.600;9.890;2022-09-27T05:30:18;3.23;;;0.70;;
60030;SDS011;45901;47.600;9.890;2022-09-27T05:32:45;1.70;;;0.53;;
60030;SDS011;45901;47.600;9.890;2022-09-27T05:35:14;2.40;;;0.60;;
60030;SDS011;45901;47.600;9.890;2022-09-27T05:37:44;0.90;;;0.40;;
60030;SDS011;45901;47.600;9.890;2022-09-27T05:40:18;1.07;;;0.50;;
60030;SDS011;45901;47.600;9.890;2022-09-27T05:42:48;2.80;;;0.60;;
60030;SDS011;45901;47.600;9.890;2022-09-27T05:45:16;3.20;;;0.73;;
60030;SDS011;45901;47.600;9.890;2022-09-27T05:47:51;2.33;;;0.70;;
60030;SDS011;45901;47.600;9.890;2022-09-27T05:50:19;2.50;;;0.80;;
60030;SDS011;45901;47.600;9.890;2022-09-27T05:52:48;3.60;;;0.93;;
60030;SDS011;45901;47.600;9.890;2022-09-27T05:55:15;3.33;;;0.80;;
60030;SDS011;45901;47.600;9.890;2022-09-27T05:57:52;2.60;;;0.67;;
60030;SDS011;45901;47.600;9.890;2022-09-27T06:00:21;1.37;;;0.50;;
60030;SDS011;45901;47.600;9.890;2022-09-27T06:02:53;5.50;;;1.00;;
60030;SDS011;45901;47.600;9.890;2022-09-27T06:05:23;3.17;;;0.87;;
60030;SDS011;45901;47.600;9.890;2022-09-27T06:07:56;1.87;;;0.70;;
60030;SDS011;45901;47.600;9.890;2022-09-27T06:10:25;5.53;;;1.00;;
60030;SDS011;45901;47.600;9.890;2022-09-27T06:12:57;2.60;;;0.87;;
60030;SDS011;45901;47.600;9.890;2022-09-27T06:15:26;3.70;;;0.80;;
60030;SDS011;45901;47.600;9.890;2022-09-27T06:17:54;3.77;;;1.00;;
60030;SDS011;45901;47.600;9.890;2022-09-27T06:20:22;2.80;;;0.80;;
60030;SDS011;45901;47.600;9.890;2022-09-27T06:22:50;2.33;;;1.03;;
60030;SDS011;45901;47.600;9.890;2022-09-27T06:25:19;3.53;;;1.20;;
60030;SDS011;45901;47.600;9.890;2022-09-27T06:27:46;4.80;;;0.93;;
60030;SDS011;45901;47.600;9.890;2022-09-27T06:30:14;3.47;;;1.00;;
60030;SDS011;45901;47.600;9.890;2022-09-27T06:32:41;2.63;;;0.77;;
60030;SDS011;45901;47.600;9.890;2022-09-27T06:35:08;5.27;;;1.33;;
60030;SDS011;45901;47.600;9.890;2022-09-27T06:37:35;4.43;;;0.77;;
60030;SDS011;45901;47.600;9.890;2022-09-27T06:40:05;1.73;;;1.00;;
60030;SDS011;45901;47.600;9.890;2022-09-27T06:42:34;3.40;;;1.03;;
60030;SDS011;45901;47.600;9.890;2022-09-27T06:45:02;1.97;;;0.70;;
60030;SDS011;45901;47.600;9.890;2022-09-27T06:47:34;3.53;;;0.80;;
60030;SDS011;45901;47.600;9.890;2022-09-27T06:50:02;3.37;;;0.83;;
60030;SDS011;45901;47.600;9.890;2022-09-27T06:52:30;3.57;;;1.17;;
60030;SDS011;45901;47.600;9.890;2022-09-27T06:54:57;2.17;;;0.67;;
60030;SDS011;45901;47.600;9.890;2022-09-27T06:57:26;2.17;;;1.40;;
60030;SDS011;45901;47.600;9.890;2022-09-27T07:00:11;6.27;;;1.00;;
60030;SDS011;45901;47.600;9.890;2022-09-27T07:02:51;2.93;;;0.80;;
60030;SDS011;45901;47.600;9.890;2022-09-27T07:05:25;1.53;;;0.80;;
60030;SDS011;45901;47.600;9.890;2022-09-27T07:07:53;1.90;;;0.77;;
60030;SDS011;45901;47.600;9.890;2022-09-27T07:10:22;2.83;;;0.90;;
60030;SDS011;45901;47.600;9.890;2022-09-27T07:12:51;4.30;;;1.27;;
60030;SDS011;45901;47.600;9.890;2022-09-27T07:15:19;3.13;;;0.70;;
60030;SDS011;45901;47.600;9.890;2022-09-27T07:17:46;2.70;;;1.00;;
60030;SDS011;45901;47.600;9.890;2022-09-27T07:20:20;3.67;;;1.40;;
60030;SDS011;45901;47.600;9.890;2022-09-27T07:22:48;3.07;;;0.73;;
60030;SDS011;45901;47.600;9.890;2022-09-27T07:25:15;4.30;;;0.97;;
60030;SDS011;45901;47.600;9.890;2022-09-27T07:27:42;4.80;;;0.93;;
60030;SDS011;45901;47.600;9.890;2022-09-27T07:30:12;1.97;;;0.73;;
60030;SDS011;45901;47.600;9.890;2022-09-27T07:32:40;4.87;;;1.07;;
60030;SDS011;45901;47.600;9.890;2022-09-27T07:35:08;4.90;;;1.10;;
60030;SDS011;45901;47.600;9.890;2022-09-27T07:37:39;3.40;;;0.90;;
60030;SDS011;45901;47.600;9.890;2022-09-27T07:40:07;2.03;;;0.80;;
60030;SDS011;45901;47.600;9.890;2022-09-27T07:42:35;4.30;;;1.07;;
60030;SDS011;45901;47.600;9.890;2022-09-27T07:45:03;4.33;;;1.13;;
60030;SDS011;45901;47.600;9.890;2022-09-27T07:47:33;3.93;;;1.00;;
60030;SDS011;45901;47.600;9.890;2022-09-27T07:50:03;3.30;;;1.33;;
60030;SDS011;45901;47.600;9.890;2022-09-27T07:52:37;6.57;;;1.03;;
60030;SDS011;45901;47.600;9.890;2022-09-27T07:55:05;2.97;;;1.17;;
60030;SDS011;45901;47.600;9.890;2022-09-27T07:57:34;2.57;;;0.77;;
60030;SDS011;45901;47.600;9.890;2022-09-27T08:00:02;1.60;;;0.70;;
60030;SDS011;45901;47.600;9.890;2022-09-27T08:02:33;3.87;;;0.80;;
60030;SDS011;45901;47.600;9.890;2022-09-27T08:05:00;3.23;;;0.90;;
60030;SDS011;45901;47.600;9.890;2022-09-27T08:07:29;3.47;;;2.10;;
60030;SDS011;45901;47.600;9.890;2022-09-27T08:09:57;2.27;;;0.70;;
60030;SDS011;45901;47.600;9.890;2022-09-27T08:12:24;2.00;;;0.90;;
60030;SDS011;45901;47.600;9.890;2022-09-27T08:14:51;1.40;;;0.57;;
60030;SDS011;45901;47.600;9.890;2022-09-27T08:17:22;3.33;;;1.33;;
60030;SDS011;45901;47.600;9.890;2022-09-27T08:19:51;3.43;;;0.80;;
60030;SDS011;45901;47.600;9.890;2022-09-27T08:22:19;4.10;;;1.10;;
60030;SDS011;45901;47.600;9.890;2022-09-27T08:24:46;1.27;;;0.60;;
60030;SDS011;45901;47.600;9.890;2022-09-27T08:27:14;3.47;;;1.00;;
60030;SDS011;45901;47.600;9.890;2022-09-27T08:29:41;1.60;;;0.70;;
60030;SDS011;45901;47.600;9.890;2022-09-27T08:32:08;2.20;;;0.80;;
60030;SDS011;45901;47.600;9.890;2022-09-27T08:34:37;3.70;;;0.90;;
60030;SDS011;45901;47.600;9.890;2022-09-27T08:37:05;3.60;;;1.10;;
60030;SDS011;45901;47.600;9.890;2022-09-27T08:39:32;3.13;;;0.70;;
60030;SDS011;45901;47.600;9.890;2022-09-27T08:42:01;2.40;;;0.73;;
60030;SDS011;45901;47.600;9.890;2022-09-27T08:44:43;1.23;;;0.63;;
60030;SDS011;45901;47.600;9.890;2022-09-27T08:47:15;2.53;;;1.00;;
60030;SDS011;45901;47.600;9.890;2022-09-27T08:49:50;6.00;;;1.60;;
60030;SDS011;45901;47.600;9.890;2022-09-27T08:52:24;5.30;;;2.23;;
60030;SDS011;45901;47.600;9.890;2022-09-27T08:54:57;6.07;;;2.03;;
60030;SDS011;45901;47.600;9.890;2022-09-27T08:57:31;6.80;;;1.60;;
60030;SDS011;45901;47.600;9.890;2022-09-27T09:00:00;2.37;;;0.80;;
60030;SDS011;45901;47.600;9.890;2022-09-27T09:02:32;1.63;;;0.70;;
60030;SDS011;45901;47.600;9.890;2022-09-27T09:05:02;4.10;;;1.00;;
60030;SDS011;45901;47.600;9.890;2022-09-27T09:07:40;2.80;;;0.80;;
60030;SDS011;45901;47.600;9.890;2022-09-27T09:10:29;3.90;;;0.73;;
60030;SDS011;45901;47.600;9.890;2022-09-27T09:13:32;1.57;;;0.63;;
60030;SDS011;45901;47.600;9.890;2022-09-27T09:16:44;3.57;;;0.90;;
60030;SDS011;45901;47.600;9.890;2022-09-27T09:19:25;6.43;;;1.70;;
60030;SDS011;45901;47.600;9.890;2022-09-27T09:22:32;2.17;;;0.97;;
60030;SDS011;45901;47.600;9.890;2022-09-27T09:25:26;2.40;;;0.80;;
60030;SDS011;45901;47.600;9.890;2022-09-27T09:28:03;0.93;;;0.80;;
60030;SDS011;45901;47.600;9.890;2022-09-27T09:30:50;1.97;;;1.00;;
60030;SDS011;45901;47.600;9.890;2022-09-27T09:33:32;4.47;;;0.93;;
60030;SDS011;45901;47.600;9.890;2022-09-27T09:36:08;2.83;;;1.50;;
60030;SDS011;45901;47.600;9.890;2022-09-27T09:38:46;5.40;;;1.87;;
60030;SDS011;45901;47.600;9.890;2022-09-27T09:41:19;2.90;;;1.50;;
60030;SDS011;45901;47.600;9.890;2022-09-27T09:43:54;3.90;;;1.20;;
60030;SDS011;45901;47.600;9.890;2022-09-27T09:46:27;5.43;;;2.27;;
60030;SDS011;45901;47.600;9.890;2022-09-27T09:49:01;3.13;;;1.17;;
60030;SDS011;45901;47.600;9.890;2022-09-27T09:51:42;3.57;;;1.47;;
60030;SDS011;45901;47.600;9.890;2022-09-27T09:54:18;2.83;;;1.00;;
60030;SDS011;45901;47.600;9.890;2022-09-27T09:56:54;4.73;;;1.90;;
60030;SDS011;45901;47.600;9.890;2022-09-27T09:59:29;3.57;;;1.80;;
60030;SDS011;45901;47.600;9.890;2022-09-27T10:02:13;2.40;;;1.37;;
60030;SDS011;45901;47.600;9.890;2022-09-27T10:04:50;3.90;;;1.30;;
60030;SDS011;45901;47.600;9.890;2022-09-27T10:07:19;5.67;;;1.37;;
60030;SDS011;45901;47.600;9.890;2022-09-27T10:09:52;4.27;;;1.30;;
60030;SDS011;45901;47.600;9.890;2022-09-27T10:12:22;2.53;;;1.10;;
60030;SDS011;45901;47.600;9.890;2022-09-27T10:14:50;6.63;;;1.70;;
60030;SDS011;45901;47.600;9.890;2022-09-27T10:17:20;2.40;;;1.50;;
60030;SDS011;45901;47.600;9.890;2022-09-27T10:19:51;2.73;;;1.30;;
60030;SDS011;45901;47.600;9.890;2022-09-27T10:22:27;3.03;;;1.40;;
60030;SDS011;45901;47.600;9.890;2022-09-27T10:25:06;2.17;;;1.00;;
60030;SDS011;45901;47.600;9.890;2022-09-27T10:27:37;3.60;;;1.57;;
60030;SDS011;45901;47.600;9.890;2022-09-27T10:30:20;2.33;;;1.07;;
60030;SDS011;45901;47.600;9.890;2022-09-27T10:32:56;6.20;;;1.13;;
60030;SDS011;45901;47.600;9.890;2022-09-27T10:35:33;4.23;;;0.90;;
60030;SDS011;45901;47.600;9.890;2022-09-27T10:40:56;3.70;;;1.10;;
60030;SDS011;45901;47.600;9.890;2022-09-27T10:43:42;3.80;;;1.00;;
60030;SDS011;45901;47.600;9.890;2022-09-27T10:46:11;1.90;;;0.90;;
60030;SDS011;45901;47.600;9.890;2022-09-27T10:48:53;3.60;;;1.17;;
60030;SDS011;45901;47.600;9.890;2022-09-27T10:51:37;2.77;;;1.07;;
60030;SDS011;45901;47.600;9.890;2022-09-27T10:54:04;5.37;;;1.20;;
60030;SDS011;45901;47.600;9.890;2022-09-27T10:57:04;4.03;;;1.10;;
60030;SDS011;45901;47.600;9.890;2022-09-27T11:00:19;2.87;;;1.00;;
60030;SDS011;45901;47.600;9.890;2022-09-27T11:02:55;1.57;;;0.67;;
60030;SDS011;45901;47.600;9.890;2022-09-27T11:05:30;3.10;;;1.30;;
60030;SDS011;45901;47.600;9.890;2022-09-27T11:08:01;3.77;;;1.30;;
60030;SDS011;45901;47.600;9.890;2022-09-27T11:11:02;5.87;;;1.60;;
60030;SDS011;45901;47.600;9.890;2022-09-27T11:14:03;4.77;;;1.60;;
60030;SDS011;45901;47.600;9.890;2022-09-27T11:17:07;3.30;;;1.20;;
60030;SDS011;45901;47.600;9.890;2022-09-27T11:23:08;3.17;;;1.30;;
60030;SDS011;45901;47.600;9.890;2022-09-27T11:26:44;5.77;;;1.60;;
60030;SDS011;45901;47.600;9.890;2022-09-27T11:29:34;5.03;;;1.27;;
60030;SDS011;45901;47.600;9.890;2022-09-27T11:32:34;4.17;;;0.80;;
60030;SDS011;45901;47.600;9.890;2022-09-27T11:35:41;7.53;;;1.83;;
60030;SDS011;45901;47.600;9.890;2022-09-27T11:38:22;4.87;;;2.13;;
60030;SDS011;45901;47.600;9.890;2022-09-27T11:40:59;5.90;;;2.20;;
60030;SDS011;45901;47.600;9.890;2022-09-27T11:43:54;4.23;;;1.60;;
60030;SDS011;45901;47.600;9.890;2022-09-27T11:46:51;3.60;;;1.60;;
60030;SDS011;45901;47.600;9.890;2022-09-27T11:49:57;3.87;;;1.37;;
60030;SDS011;45901;47.600;9.890;2022-09-27T11:52:55;4.40;;;1.70;;
60030;SDS011;45901;47.600;9.890;2022-09-27T11:55:44;2.43;;;1.00;;
60030;SDS011;45901;47.600;9.890;2022-09-27T11:58:25;2.87;;;1.20;;
60030;SDS011;45901;47.600;9.890;2022-09-27T12:01:23;5.37;;;1.27;;
60030;SDS011;45901;47.600;9.890;2022-09-27T12:04:24;2.17;;;0.70;;
60030;SDS011;45901;47.600;9.890;2022-09-27T12:07:26;2.33;;;0.63;;
60030;SDS011;45901;47.600;9.890;2022-09-27T12:10:03;3.57;;;0.83;;
60030;SDS011;45901;47.600;9.890;2022-09-27T12:12:41;2.97;;;0.60;;
60030;SDS011;45901;47.600;9.890;2022-09-27T12:15:16;1.93;;;0.70;;
60030;SDS011;45901;47.600;9.890;2022-09-27T12:17:47;3.17;;;0.50;;
60030;SDS011;45901;47.600;9.890;2022-09-27T12:20:21;0.37;;;0.20;;
60030;SDS011;45901;47.600;9.890;2022-09-27T12:22:56;1.10;;;0.30;;
60030;SDS011;45901;47.600;9.890;2022-09-27T12:25:28;3.30;;;0.63;;
60030;SDS011;45901;47.600;9.890;2022-09-27T12:28:03;5.00;;;0.80;;
60030;SDS011;45901;47.600;9.890;2022-09-27T12:30:37;3.83;;;0.70;;
60030;SDS011;45901;47.600;9.890;2022-09-27T12:33:15;6.50;;;1.00;;
60030;SDS011;45901;47.600;9.890;2022-09-27T12:36:03;3.33;;;0.90;;
60030;SDS011;45901;47.600;9.890;2022-09-27T12:38:38;7.20;;;1.03;;
60030;SDS011;45901;47.600;9.890;2022-09-27T12:41:11;8.00;;;1.73;;
60030;SDS011;45901;47.600;9.890;2022-09-27T12:43:45;3.87;;;1.30;;
60030;SDS011;45901;47.600;9.890;2022-09-27T12:46:17;11.67;;;2.10;;
60030;SDS011;45901;47.600;9.890;2022-09-27T12:48:57;1.10;;;0.67;;
60030;SDS011;45901;47.600;9.890;2022-09-27T12:51:33;2.27;;;1.10;;
60030;SDS011;45901;47.600;9.890;2022-09-27T12:57:23;2.10;;;0.60;;
60030;SDS011;45901;47.600;9.890;2022-09-27T13:00:04;1.43;;;0.40;;
60030;SDS011;45901;47.600;9.890;2022-09-27T13:03:04;1.67;;;0.40;;
60030;SDS011;45901;47.600;9.890;2022-09-27T13:09:12;1.70;;;0.50;;
60030;SDS011;45901;47.600;9.890;2022-09-27T13:12:16;1.73;;;0.70;;
60030;SDS011;45901;47.600;9.890;2022-09-27T13:14:49;3.10;;;0.80;;
60030;SDS011;45901;47.600;9.890;2022-09-27T13:17:46;2.10;;;1.30;;
60030;SDS011;45901;47.600;9.890;2022-09-27T13:26:20;1.77;;;0.60;;
60030;SDS011;45901;47.600;9.890;2022-09-27T13:29:10;1.50;;;0.70;;
60030;SDS011;45901;47.600;9.890;2022-09-27T13:34:47;3.57;;;1.17;;
60030;SDS011;45901;47.600;9.890;2022-09-27T13:40:22;2.70;;;0.80;;
60030;SDS011;45901;47.600;9.890;2022-09-27T13:43:00;1.60;;;0.67;;
60030;SDS011;45901;47.600;9.890;2022-09-27T13:46:17;1.23;;;0.60;;
60030;SDS011;45901;47.600;9.890;2022-09-27T13:48:54;1.80;;;0.80;;
60030;SDS011;45901;47.600;9.890;2022-09-27T13:51:30;1.60;;;0.63;;
60030;SDS011;45901;47.600;9.890;2022-09-27T13:54:07;3.23;;;0.90;;
60030;SDS011;45901;47.600;9.890;2022-09-27T14:00:21;4.60;;;1.20;;
60030;SDS011;45901;47.600;9.890;2022-09-27T14:02:59;2.60;;;1.00;;
60030;SDS011;45901;47.600;9.890;2022-09-27T14:05:30;3.43;;;1.53;;
60030;SDS011;45901;47.600;9.890;2022-09-27T14:08:03;3.27;;;1.40;;
60030;SDS011;45901;47.600;9.890;2022-09-27T14:10:32;4.27;;;1.70;;
60030;SDS011;45901;47.600;9.890;2022-09-27T14:13:03;2.13;;;1.00;;
60030;SDS011;45901;47.600;9.890;2022-09-27T14:15:32;2.20;;;1.13;;
60030;SDS011;45901;47.600;9.890;2022-09-27T14:18:00;2.07;;;0.93;;
60030;SDS011;45901;47.600;9.890;2022-09-27T14:20:28;2.93;;;1.67;;
60030;SDS011;45901;47.600;9.890;2022-09-27T14:23:01;3.67;;;1.63;;
60030;SDS011;45901;47.600;9.890;2022-09-27T14:25:28;2.63;;;1.03;;
60030;SDS011;45901;47.600;9.890;2022-09-27T14:27:56;1.87;;;1.20;;
60030;SDS011;45901;47.600;9.890;2022-09-27T14:30:26;2.80;;;1.13;;
60030;SDS011;45901;47.600;9.890;2022-09-27T14:32:55;2.07;;;0.93;;
60030;SDS011;45901;47.600;9.890;2022-09-27T14:35:27;2.50;;;1.00;;
60030;SDS011;45901;47.600;9.890;2022-09-27T14:38:14;2.97;;;1.37;;
60030;SDS011;45901;47.600;9.890;2022-09-27T14:40:53;1.20;;;0.70;;
60030;SDS011;45901;47.600;9.890;2022-09-27T14:43:26;1.70;;;0.70;;
60030;SDS011;45901;47.600;9.890;2022-09-27T14:45:58;2.20;;;0.87;;
60030;SDS011;45901;47.600;9.890;2022-09-27T14:48:28;2.40;;;1.13;;
60030;SDS011;45901;47.600;9.890;2022-09-27T14:50:57;2.00;;;1.07;;
60030;SDS011;45901;47.600;9.890;2022-09-27T14:53:28;2.33;;;1.30;;
60030;SDS011;45901;47.600;9.890;2022-09-27T14:55:57;2.80;;;1.67;;
60030;SDS011;45901;47.600;9.890;2022-09-27T14:58:26;4.17;;;1.30;;
60030;SDS011;45901;47.600;9.890;2022-09-27T15:00:55;6.63;;;2.47;;
60030;SDS011;45901;47.600;9.890;2022-09-27T15:03:25;2.80;;;1.10;;
60030;SDS011;45901;47.600;9.890;2022-09-27T15:05:56;3.03;;;0.70;;
60030;SDS011;45901;47.600;9.890;2022-09-27T15:08:26;3.50;;;1.30;;
60030;SDS011;45901;47.600;9.890;2022-09-27T15:10:58;1.57;;;0.70;;
60030;SDS011;45901;47.600;9.890;2022-09-27T15:13:26;2.33;;;0.70;;
60030;SDS011;45901;47.600;9.890;2022-09-27T15:15:55;1.37;;;0.77;;
60030;SDS011;45901;47.600;9.890;2022-09-27T15:18:31;1.20;;;0.40;;
60030;SDS011;45901;47.600;9.890;2022-09-27T15:21:06;0.60;;;0.40;;
60030;SDS011;45901;47.600;9.890;2022-09-27T15:23:36;1.40;;;0.60;;
60030;SDS011;45901;47.600;9.890;2022-09-27T15:26:07;1.67;;;0.57;;
60030;SDS011;45901;47.600;9.890;2022-09-27T15:28:41;4.47;;;0.70;;
60030;SDS011;45901;47.600;9.890;2022-09-27T15:31:10;3.37;;;0.87;;
60030;SDS011;45901;47.600;9.890;2022-09-27T15:33:39;1.10;;;0.60;;
60030;SDS011;45901;47.600;9.890;2022-09-27T15:36:08;1.20;;;0.57;;
60030;SDS011;45901;47.600;9.890;2022-09-27T15:38:39;2.47;;;0.90;;
60030;SDS011;45901;47.600;9.890;2022-09-27T15:41:11;1.20;;;0.47;;
60030;SDS011;45901;47.600;9.890;2022-09-27T15:43:43;0.77;;;0.47;;
60030;SDS011;45901;47.600;9.890;2022-09-27T15:46:37;0.90;;;0.40;;
60030;SDS011;45901;47.600;9.890;2022-09-27T15:49:28;1.13;;;0.40;;
60030;SDS011;45901;47.600;9.890;2022-09-27T15:51:58;2.00;;;0.83;;
60030;SDS011;45901;47.600;9.890;2022-09-27T15:54:27;2.40;;;1.00;;
60030;SDS011;45901;47.600;9.890;2022-09-27T15:57:00;1.67;;;0.77;;
60030;SDS011;45901;47.600;9.890;2022-09-27T15:59:30;3.60;;;0.87;;